Time;durP1;ratioP1;P1;durP2;ratioP2;P2;SDS_P1;SDS_P2;PMS_P1;PMS_P2;Temp;Humidity;BMP_temperature;BMP_pressure;BME280_temperature;BME280_humidity;BME280_pressure;Samples;Min_cycle;Max_cycle;Signal;HPM_P1;HPM_P2
2021/01/24 00:00:46;;;;;;;12.50;9.77;;;4.10;99.90;;;;;;5038914;28;20216;-86
2021/01/24 00:03:12;;;;;;;14.20;9.70;;;4.00;99.90;;;;;;5038403;28;20435;-85
2021/01/24 00:05:38;;;;;;;15.90;11.10;;;4.10;99.90;;;;;;5038744;28;20458;-85
2021/01/24 00:08:04;;;;;;;15.13;10.33;;;4.00;99.90;;;;;;5056442;28;20510;-85
2021/01/24 00:10:29;;;;;;;12.00;9.00;;;4.00;99.90;;;;;;5037608;28;20176;-86
2021/01/24 00:12:55;;;;;;;12.87;9.97;;;4.00;99.90;;;;;;5038772;28;20181;-85
2021/01/24 00:15:20;;;;;;;22.83;12.03;;;4.00;99.90;;;;;;5056419;28;20201;-86
2021/01/24 00:17:46;;;;;;;15.40;10.63;;;4.00;99.90;;;;;;5058266;28;20176;-89
2021/01/24 00:20:11;;;;;;;17.87;10.40;;;4.00;99.90;;;;;;5056329;28;20166;-88
2021/01/24 00:22:37;;;;;;;16.50;11.00;;;4.10;99.90;;;;;;5056343;28;20215;-89
2021/01/24 00:25:04;;;;;;;14.00;10.00;;;4.10;99.90;;;;;;5056477;28;20173;-86
2021/01/24 00:27:30;;;;;;;13.00;9.20;;;4.10;99.90;;;;;;5056086;28;20467;-88
2021/01/24 00:29:55;;;;;;;15.23;10.63;;;4.20;99.90;;;;;;5058799;28;20425;-89
2021/01/24 00:32:21;;;;;;;16.03;11.10;;;4.20;99.90;;;;;;5067548;28;20652;-88
2021/01/24 00:34:47;;;;;;;17.30;12.00;;;4.20;99.90;;;;;;5067093;28;20692;-86
2021/01/24 00:37:13;;;;;;;15.57;11.13;;;4.20;99.90;;;;;;5043711;28;20187;-88
2021/01/24 00:39:39;;;;;;;11.43;10.20;;;4.20;99.90;;;;;;5048626;28;20684;-87
2021/01/24 00:42:04;;;;;;;17.10;10.27;;;4.20;99.90;;;;;;5065284;28;20422;-88
2021/01/24 00:44:30;;;;;;;19.23;10.33;;;3.90;99.90;;;;;;5048668;28;20412;-89
2021/01/24 00:46:56;;;;;;;16.30;11.70;;;4.20;99.90;;;;;;5051939;28;20540;-87
2021/01/24 00:49:21;;;;;;;16.10;10.17;;;4.20;99.90;;;;;;5046430;28;20177;-88
2021/01/24 00:51:47;;;;;;;12.80;9.50;;;4.10;99.90;;;;;;5058296;28;20661;-88
2021/01/24 00:54:12;;;;;;;14.60;11.33;;;4.00;99.90;;;;;;5067320;28;20499;-87
2021/01/24 00:56:38;;;;;;;16.20;11.40;;;3.90;99.90;;;;;;5061764;28;20224;-88
2021/01/24 00:59:03;;;;;;;19.20;10.50;;;3.90;99.90;;;;;;5043453;28;20169;-87
2021/01/24 01:01:29;;;;;;;17.13;10.00;;;3.80;99.90;;;;;;5042028;28;20651;-87
2021/01/24 01:03:55;;;;;;;13.40;9.03;;;3.70;99.90;;;;;;5064603;28;20180;-87
2021/01/24 01:06:20;;;;;;;19.70;12.27;;;3.70;99.90;;;;;;5048823;28;20227;-84
2021/01/24 01:08:46;;;;;;;15.47;9.90;;;3.50;99.90;;;;;;5063953;28;20208;-85
2021/01/24 01:11:11;;;;;;;16.97;10.87;;;3.60;99.90;;;;;;5044600;28;20607;-86
2021/01/24 01:13:37;;;;;;;13.70;9.10;;;3.60;99.90;;;;;;5062391;28;20183;-85
2021/01/24 01:16:03;;;;;;;16.97;11.23;;;3.60;99.90;;;;;;5064227;28;20202;-86
2021/01/24 01:18:31;;;;;;;14.90;11.10;;;3.50;99.90;;;;;;5046634;28;20196;-87
2021/01/24 01:20:58;;;;;;;18.00;11.37;;;3.50;99.90;;;;;;5063141;28;20695;-85
2021/01/24 01:23:24;;;;;;;19.60;11.00;;;3.40;99.90;;;;;;5047775;28;20960;-86
2021/01/24 01:25:53;;;;;;;14.77;11.53;;;3.40;99.90;;;;;;5044995;28;20446;-85
2021/01/24 01:28:19;;;;;;;15.40;10.60;;;3.40;99.90;;;;;;5044824;28;20208;-85
2021/01/24 01:30:44;;;;;;;16.77;11.10;;;3.30;99.90;;;;;;5062897;28;20943;-85
2021/01/24 01:33:10;;;;;;;13.97;10.37;;;3.30;99.90;;;;;;5063085;28;20775;-85
2021/01/24 01:35:35;;;;;;;14.70;11.00;;;3.30;99.90;;;;;;5046952;28;20654;-85
2021/01/24 01:38:02;;;;;;;19.20;11.50;;;3.30;99.90;;;;;;5062601;28;20185;-85
2021/01/24 01:40:27;;;;;;;15.20;10.77;;;3.40;99.90;;;;;;5063438;28;20244;-86
2021/01/24 01:42:56;;;;;;;21.47;11.90;;;3.10;99.90;;;;;;5036336;28;20520;-85
2021/01/24 01:45:22;;;;;;;19.77;11.63;;;3.10;99.90;;;;;;5052637;28;20170;-87
2021/01/24 01:47:47;;;;;;;16.10;11.80;;;3.20;99.90;;;;;;5043870;28;20457;-89
2021/01/24 01:50:17;;;;;;;19.50;11.67;;;3.20;99.90;;;;;;5050966;28;20547;-88
2021/01/24 01:52:43;;;;;;;17.37;10.50;;;3.20;99.90;;;;;;5048186;28;20196;-89
2021/01/24 01:55:09;;;;;;;18.77;11.13;;;3.20;99.90;;;;;;5044647;28;20451;-89
2021/01/24 01:57:34;;;;;;;15.67;10.47;;;3.20;99.90;;;;;;5063832;28;20421;-89
2021/01/24 02:00:00;;;;;;;14.97;9.87;;;3.20;99.90;;;;;;5054331;28;20181;-87
2021/01/24 02:02:44;;;;;;;19.40;11.60;;;3.20;99.90;;;;;;5076400;28;20173;-88
2021/01/24 02:05:43;;;;;;;13.83;9.43;;;3.10;99.90;;;;;;5056282;28;20574;-88
2021/01/24 02:08:21;;;;;;;17.63;11.53;;;3.10;99.90;;;;;;5043131;28;21036;-87
2021/01/24 02:10:55;;;;;;;15.33;10.80;;;3.10;99.90;;;;;;5059786;28;20923;-88
2021/01/24 02:13:41;;;;;;;17.00;10.80;;;2.90;99.90;;;;;;5046034;28;20449;-89
2021/01/24 02:16:08;;;;;;;18.63;11.83;;;;;;;;;;5041362;28;20424;-90
2021/01/24 02:18:40;;;;;;;21.10;13.10;;;2.90;99.90;;;;;;5061151;28;20488;-90
2021/01/24 02:21:13;;;;;;;15.93;11.20;;;2.80;99.90;;;;;;5045189;28;20415;-90
2021/01/24 02:23:41;;;;;;;16.40;11.27;;;2.80;99.90;;;;;;5039617;28;20507;-89
2021/01/24 02:26:46;;;;;;;20.47;12.03;;;2.80;99.90;;;;;;5064369;28;20410;-89
2021/01/24 02:29:28;;;;;;;17.20;11.27;;;2.80;99.90;;;;;;5055777;28;21009;-88
2021/01/24 02:31:56;;;;;;;19.70;12.17;;;2.80;99.90;;;;;;5051629;28;20520;-87
2021/01/24 02:34:30;;;;;;;17.30;11.20;;;2.80;99.90;;;;;;5056136;28;20401;-89
2021/01/24 02:36:57;;;;;;;16.20;11.47;;;2.70;99.90;;;;;;5046542;28;20449;-88
2021/01/24 02:39:23;;;;;;;16.00;10.23;;;2.70;99.90;;;;;;5068314;28;20823;-89
2021/01/24 02:41:50;;;;;;;17.17;10.73;;;;;;;;;;5061370;28;20429;-89
2021/01/24 02:44:16;;;;;;;16.97;12.87;;;2.60;99.90;;;;;;5062636;28;20430;-89
2021/01/24 02:46:43;;;;;;;16.10;10.93;;;2.60;99.90;;;;;;5044365;28;20486;-87
2021/01/24 02:49:10;;;;;;;16.70;11.77;;;2.60;99.90;;;;;;5040087;28;20472;-89
2021/01/24 02:51:37;;;;;;;31.40;13.97;;;2.60;99.90;;;;;;5054605;28;20419;-88
2021/01/24 02:54:04;;;;;;;20.60;12.50;;;2.50;99.90;;;;;;5041811;28;20421;-88
2021/01/24 02:56:29;;;;;;;18.80;12.23;;;2.50;99.90;;;;;;5054886;28;20800;-88
2021/01/24 02:58:56;;;;;;;15.43;10.70;;;2.50;99.90;;;;;;5052855;28;20436;-88
2021/01/24 03:01:21;;;;;;;18.40;12.70;;;2.40;99.90;;;;;;5047473;28;20422;-88
2021/01/24 03:03:47;;;;;;;20.70;11.37;;;2.40;99.90;;;;;;5047878;28;20421;-90
2021/01/24 03:06:13;;;;;;;17.80;12.00;;;2.40;99.90;;;;;;5053113;28;20175;-87
2021/01/24 03:08:39;;;;;;;19.17;10.80;;;2.40;99.90;;;;;;5038608;28;20264;-88
2021/01/24 03:11:09;;;;;;;20.77;13.13;;;2.40;99.90;;;;;;5045769;28;20199;-88
2021/01/24 03:13:55;;;;;;;18.33;11.67;;;2.40;99.90;;;;;;5046624;28;20806;-88
2021/01/24 03:16:21;;;;;;;22.97;13.90;;;2.40;99.90;;;;;;5053785;28;20775;-90
2021/01/24 03:18:48;;;;;;;18.27;12.83;;;3.00;99.90;;;;;;5043668;28;20423;-88
2021/01/24 03:21:16;;;;;;;22.57;13.27;;;2.40;99.90;;;;;;5044412;28;20465;-89
2021/01/24 03:23:42;;;;;;;21.33;12.77;;;2.40;99.90;;;;;;5052256;28;20420;-88
2021/01/24 03:26:08;;;;;;;20.17;13.80;;;2.40;99.90;;;;;;5044309;28;20421;-87
2021/01/24 03:28:35;;;;;;;23.93;13.40;;;2.40;99.90;;;;;;5049814;28;20487;-88
2021/01/24 03:31:10;;;;;;;20.20;12.87;;;2.40;99.90;;;;;;5048185;28;20511;-87
2021/01/24 03:33:37;;;;;;;16.70;12.10;;;2.40;99.90;;;;;;5053819;28;20425;-88
2021/01/24 03:36:04;;;;;;;18.63;13.40;;;2.50;99.90;;;;;;5058156;28;20913;-88
2021/01/24 03:38:30;;;;;;;20.37;12.90;;;2.50;99.90;;;;;;5056526;28;20427;-86
2021/01/24 03:40:55;;;;;;;20.13;13.40;;;2.50;99.90;;;;;;5039782;28;20856;-87
2021/01/24 03:43:21;;;;;;;19.20;12.30;;;2.50;99.90;;;;;;5043462;28;20200;-87
2021/01/24 03:45:47;;;;;;;19.77;12.17;;;2.50;99.90;;;;;;5045996;28;20568;-88
2021/01/24 03:48:16;;;;;;;19.90;11.57;;;2.50;99.90;;;;;;5044444;28;20520;-89
2021/01/24 03:50:41;;;;;;;23.53;12.80;;;2.60;99.90;;;;;;5070621;28;20278;-89
2021/01/24 03:53:07;;;;;;;15.90;12.00;;;2.60;99.90;;;;;;5064018;28;20454;-90
2021/01/24 03:55:33;;;;;;;15.90;11.93;;;2.60;99.90;;;;;;5043346;28;20680;-87
2021/01/24 03:57:58;;;;;;;16.13;12.00;;;2.60;99.90;;;;;;5045118;28;20177;-89
2021/01/24 04:00:24;;;;;;;15.30;11.00;;;2.60;99.90;;;;;;5041555;28;20272;-91
2021/01/24 04:02:49;;;;;;;16.50;11.67;;;2.60;99.90;;;;;;5064656;28;20538;-89
2021/01/24 04:05:15;;;;;;;16.20;11.87;;;2.60;99.90;;;;;;5052491;28;20173;-88
2021/01/24 04:07:41;;;;;;;14.67;10.50;;;2.60;99.90;;;;;;5059143;28;20220;-89
2021/01/24 04:10:07;;;;;;;18.70;13.50;;;2.60;99.90;;;;;;5054746;28;20611;-90
2021/01/24 04:12:34;;;;;;;15.73;9.73;;;2.60;99.90;;;;;;5055165;28;20781;-88
2021/01/24 04:15:00;;;;;;;17.27;12.10;;;2.60;99.90;;;;;;5073476;28;20418;-88
2021/01/24 04:17:26;;;;;;;17.57;11.97;;;2.60;99.90;;;;;;5055599;28;20423;-87
2021/01/24 04:19:52;;;;;;;15.40;10.07;;;2.60;99.90;;;;;;5055754;28;20764;-88
2021/01/24 04:22:17;;;;;;;14.30;10.23;;;2.60;99.90;;;;;;5054929;28;20188;-88
2021/01/24 04:24:43;;;;;;;16.20;10.83;;;2.60;99.90;;;;;;5055142;28;20186;-87
2021/01/24 04:27:08;;;;;;;17.73;11.60;;;2.60;99.90;;;;;;5055146;28;20215;-87
2021/01/24 04:29:34;;;;;;;17.57;12.03;;;2.60;99.90;;;;;;5073260;28;20190;-87
2021/01/24 04:32:00;;;;;;;19.30;12.73;;;2.60;99.90;;;;;;5058567;28;20173;-88
2021/01/24 04:34:25;;;;;;;15.30;11.57;;;2.60;99.90;;;;;;5080138;28;20176;-88
2021/01/24 04:36:51;;;;;;;16.57;11.20;;;2.60;99.90;;;;;;5062925;28;20828;-88
2021/01/24 04:39:16;;;;;;;17.07;11.47;;;2.60;99.90;;;;;;5079474;28;20227;-88
2021/01/24 04:41:43;;;;;;;16.90;11.63;;;2.70;99.90;;;;;;5059430;28;20188;-88
2021/01/24 04:44:09;;;;;;;14.47;10.90;;;2.60;99.90;;;;;;5060410;28;20229;-90
2021/01/24 04:46:35;;;;;;;20.63;11.37;;;2.60;99.90;;;;;;5062705;28;20482;-89
2021/01/24 04:49:01;;;;;;;19.00;12.60;;;2.60;99.90;;;;;;5059544;28;20226;-89
2021/01/24 04:51:27;;;;;;;17.37;12.40;;;2.60;99.90;;;;;;5058238;28;20463;-87
2021/01/24 04:53:53;;;;;;;19.33;12.80;;;2.60;99.90;;;;;;5058424;28;20433;-88
2021/01/24 04:56:19;;;;;;;17.30;11.80;;;2.60;99.90;;;;;;5059300;28;20195;-88
2021/01/24 04:58:46;;;;;;;16.13;11.43;;;2.60;99.90;;;;;;5078530;28;20441;-88
2021/01/24 05:01:15;;;;;;;19.27;11.97;;;2.60;99.90;;;;;;5059361;28;20416;-89
2021/01/24 05:03:41;;;;;;;17.73;12.10;;;2.60;99.90;;;;;;5057901;28;20922;-88
2021/01/24 05:06:06;;;;;;;16.30;10.77;;;2.60;99.90;;;;;;5058106;28;20418;-87
2021/01/24 05:08:32;;;;;;;16.40;11.10;;;2.60;99.90;;;;;;5076169;28;20241;-88
2021/01/24 05:11:08;;;;;;;16.63;11.90;;;2.70;99.90;;;;;;5075793;28;20207;-87
2021/01/24 05:13:34;;;;;;;14.27;10.90;;;2.70;99.90;;;;;;5075913;28;20177;-88
2021/01/24 05:16:00;;;;;;;18.67;13.43;;;2.70;99.90;;;;;;5059041;28;20418;-87
2021/01/24 05:18:26;;;;;;;18.47;12.80;;;2.70;99.90;;;;;;5058003;28;20944;-87
2021/01/24 05:20:52;;;;;;;18.10;12.23;;;2.80;99.90;;;;;;5057832;28;20418;-89
2021/01/24 05:23:22;;;;;;;16.53;11.87;;;2.80;99.90;;;;;;5075839;28;20419;-88
2021/01/24 05:25:48;;;;;;;17.77;12.00;;;2.90;99.90;;;;;;5057536;28;20411;-87
2021/01/24 05:28:18;;;;;;;16.47;12.27;;;2.90;99.90;;;;;;5075314;28;20462;-87
2021/01/24 05:30:44;;;;;;;15.07;10.77;;;2.90;99.90;;;;;;5075400;28;20508;-88
2021/01/24 05:33:09;;;;;;;16.97;11.77;;;3.00;99.90;;;;;;5075200;28;20448;-88
2021/01/24 05:35:46;;;;;;;14.50;11.30;;;3.00;99.90;;;;;;5075353;28;20656;-88
2021/01/24 05:38:36;;;;;;;15.60;13.10;;;3.00;99.90;;;;;;5057725;28;20209;-88
2021/01/24 05:41:09;;;;;;;14.77;11.03;;;3.10;99.90;;;;;;5054994;28;20561;-89
2021/01/24 05:43:40;;;;;;;16.93;12.00;;;3.10;99.90;;;;;;5037990;28;20818;-91
2021/01/24 05:46:06;;;;;;;14.57;11.00;;;3.10;99.90;;;;;;5036762;28;20503;-89
2021/01/24 05:48:34;;;;;;;15.13;10.13;;;3.10;99.90;;;;;;5036882;28;20474;-87
2021/01/24 05:51:05;;;;;;;19.30;11.50;;;3.10;99.90;;;;;;5037293;28;20411;-89
2021/01/24 05:53:38;;;;;;;15.40;11.03;;;2.80;99.90;;;;;;5055173;28;20411;-88
2021/01/24 05:56:16;;;;;;;18.53;13.73;;;3.10;99.90;;;;;;5037469;28;20502;-88
2021/01/24 05:58:42;;;;;;;18.77;11.50;;;3.10;99.90;;;;;;5055462;28;20403;-89
2021/01/24 06:01:09;;;;;;;20.80;13.90;;;3.20;99.90;;;;;;5037587;28;20467;-88
2021/01/24 06:03:36;;;;;;;15.50;11.10;;;3.10;99.90;;;;;;5036805;28;20539;-87
2021/01/24 06:06:03;;;;;;;17.87;12.27;;;3.10;99.90;;;;;;5037052;28;20412;-88
2021/01/24 06:08:29;;;;;;;16.03;10.80;;;3.10;99.90;;;;;;5037104;28;20474;-88
2021/01/24 06:10:57;;;;;;;16.87;12.07;;;3.20;99.90;;;;;;5055057;28;20409;-88
2021/01/24 06:13:25;;;;;;;18.13;12.50;;;3.10;99.90;;;;;;5038814;28;20424;-89
2021/01/24 06:15:52;;;;;;;19.70;11.90;;;3.10;99.90;;;;;;5059791;28;20403;-88
2021/01/24 06:18:25;;;;;;;18.70;12.20;;;3.10;99.90;;;;;;5039350;28;20792;-87
2021/01/24 06:21:01;;;;;;;23.47;13.03;;;3.10;99.90;;;;;;5038254;28;20451;-89
2021/01/24 06:23:34;;;;;;;18.77;11.80;;;3.10;99.90;;;;;;5036852;28;20552;-90
2021/01/24 06:26:12;;;;;;;16.03;11.50;;;3.20;99.90;;;;;;5036725;28;20419;-88
2021/01/24 06:28:42;;;;;;;17.10;11.00;;;3.20;99.90;;;;;;5036918;28;20513;-87
2021/01/24 06:31:16;;;;;;;16.90;12.07;;;3.10;99.90;;;;;;5036966;28;20888;-88
2021/01/24 06:33:50;;;;;;;16.53;11.30;;;3.00;99.90;;;;;;5036499;28;20443;-88
2021/01/24 06:36:15;;;;;;;21.80;11.93;;;2.90;99.90;;;;;;5054070;28;20414;-86
2021/01/24 06:38:43;;;;;;;21.53;13.13;;;2.90;99.90;;;;;;5055913;28;20413;-87
2021/01/24 06:41:11;;;;;;;23.97;14.60;;;2.90;99.90;;;;;;5056270;28;20175;-87
2021/01/24 06:43:38;;;;;;;22.57;14.30;;;2.90;99.90;;;;;;5056248;28;20963;-87
2021/01/24 06:46:26;;;;;;;23.23;14.70;;;2.90;99.90;;;;;;5055977;28;20416;-89
2021/01/24 06:48:52;;;;;;;21.73;14.00;;;3.00;99.90;;;;;;5073026;28;20476;-88
2021/01/24 06:51:29;;;;;;;18.10;12.90;;;3.00;99.90;;;;;;5073899;28;20431;-88
2021/01/24 06:53:55;;;;;;;18.07;13.50;;;3.00;99.90;;;;;;5074117;28;20469;-88
2021/01/24 06:56:21;;;;;;;20.63;12.50;;;3.10;99.90;;;;;;5073911;28;20415;-88
2021/01/24 06:58:48;;;;;;;15.53;11.60;;;3.10;99.90;;;;;;5055833;28;20176;-88
2021/01/24 07:01:23;;;;;;;18.77;12.27;;;3.20;99.90;;;;;;5055819;28;20717;-89
2021/01/24 07:04:20;;;;;;;16.33;11.20;;;3.20;99.90;;;;;;5055888;28;20423;-88
2021/01/24 07:06:56;;;;;;;17.50;11.77;;;3.20;99.90;;;;;;5072729;28;20977;-88
2021/01/24 07:09:25;;;;;;;17.33;12.40;;;3.20;99.90;;;;;;5073795;28;21028;-88
2021/01/24 07:11:59;;;;;;;16.30;12.03;;;3.20;99.90;;;;;;5072629;28;20480;-87
2021/01/24 07:14:39;;;;;;;22.37;13.00;;;3.30;99.90;;;;;;5055769;28;20423;-88
2021/01/24 07:17:13;;;;;;;15.20;11.03;;;3.20;99.90;;;;;;5073460;28;20472;-88
2021/01/24 07:19:49;;;;;;;19.70;12.87;;;3.20;99.90;;;;;;5055839;28;20411;-87
2021/01/24 07:22:18;;;;;;;19.27;12.20;;;3.30;99.90;;;;;;5055815;28;20450;-87
2021/01/24 07:24:45;;;;;;;19.10;12.57;;;3.30;99.90;;;;;;5055534;28;20454;-88
2021/01/24 07:27:19;;;;;;;18.00;12.60;;;3.40;99.90;;;;;;5055480;28;20507;-87
2021/01/24 07:29:45;;;;;;;22.37;14.50;;;3.40;99.90;;;;;;5055367;28;20423;-87
2021/01/24 07:32:14;;;;;;;23.17;13.00;;;3.40;99.90;;;;;;5055251;28;20461;-87
2021/01/24 07:34:41;;;;;;;18.77;13.33;;;3.40;99.90;;;;;;5055283;28;20942;-87
2021/01/24 07:37:07;;;;;;;17.07;12.47;;;3.40;99.90;;;;;;5073547;28;20418;-88
2021/01/24 07:39:34;;;;;;;21.23;13.83;;;3.40;99.90;;;;;;5073561;28;20457;-89
2021/01/24 07:42:01;;;;;;;23.67;15.50;;;3.50;99.90;;;;;;5056471;28;20418;-91
2021/01/24 07:44:27;;;;;;;22.67;13.80;;;3.50;99.90;;;;;;5056875;28;20471;-92
2021/01/24 07:46:52;;;;;;;20.00;13.53;;;3.60;99.90;;;;;;5055210;28;20407;-88
2021/01/24 07:49:18;;;;;;;20.47;12.47;;;3.60;99.90;;;;;;5055339;28;20601;-89
2021/01/24 07:51:44;;;;;;;23.00;14.40;;;3.60;99.90;;;;;;5055667;28;20193;-87
2021/01/24 07:54:11;;;;;;;22.93;13.53;;;3.60;99.90;;;;;;5064368;28;20181;-88
2021/01/24 07:56:37;;;;;;;20.93;14.33;;;3.70;99.90;;;;;;5062863;28;20425;-89
2021/01/24 07:59:03;;;;;;;18.87;13.00;;;3.60;99.90;;;;;;5073816;28;20483;-88
2021/01/24 08:01:30;;;;;;;22.97;14.60;;;3.60;99.90;;;;;;5055200;28;20430;-88
2021/01/24 08:03:59;;;;;;;28.57;16.57;;;3.60;99.90;;;;;;5073385;28;20431;-88
2021/01/24 08:06:26;;;;;;;22.07;14.23;;;3.50;99.90;;;;;;5073364;28;20445;-88
2021/01/24 08:08:51;;;;;;;23.33;15.37;;;3.50;99.90;;;;;;5055694;28;20987;-88
2021/01/24 08:11:17;;;;;;;21.27;14.47;;;3.50;99.90;;;;;;5059169;28;20415;-88
2021/01/24 08:13:43;;;;;;;17.50;11.37;;;3.50;99.90;;;;;;5059292;28;20627;-88
2021/01/24 08:16:16;;;;;;;22.23;15.17;;;3.50;99.90;;;;;;5058954;28;20169;-88
2021/01/24 08:18:45;;;;;;;17.83;12.70;;;3.50;99.90;;;;;;5059081;28;20198;-87
2021/01/24 08:21:12;;;;;;;19.77;13.63;;;3.50;99.90;;;;;;5059135;28;20450;-88
2021/01/24 08:23:38;;;;;;;19.20;13.30;;;3.40;99.90;;;;;;5058862;28;20410;-88
2021/01/24 08:26:05;;;;;;;17.77;13.20;;;3.40;99.90;;;;;;5058877;28;20923;-87
2021/01/24 08:28:32;;;;;;;18.93;14.27;;;3.40;99.90;;;;;;5059485;28;20464;-87
2021/01/24 08:31:01;;;;;;;22.90;15.40;;;3.40;99.90;;;;;;5076540;28;20456;-88
2021/01/24 08:33:27;;;;;;;18.77;13.57;;;3.40;99.90;;;;;;5058722;28;20414;-86
2021/01/24 08:35:53;;;;;;;21.70;14.03;;;3.40;99.90;;;;;;5058413;28;20415;-87
2021/01/24 08:38:20;;;;;;;23.43;14.40;;;3.30;99.90;;;;;;5076616;28;20465;-86
2021/01/24 08:40:48;;;;;;;22.40;15.97;;;3.40;99.90;;;;;;5058217;28;20465;-86
2021/01/24 08:43:17;;;;;;;21.50;15.60;;;3.50;99.90;;;;;;5058607;28;20851;-86
2021/01/24 08:45:43;;;;;;;22.13;13.87;;;3.60;99.90;;;;;;5077148;28;20407;-86
2021/01/24 08:48:14;;;;;;;20.40;13.50;;;3.70;99.90;;;;;;5059040;28;20469;-86
2021/01/24 08:50:40;;;;;;;24.33;15.17;;;3.80;99.90;;;;;;5052165;28;20230;-86
2021/01/24 08:53:08;;;;;;;20.57;13.23;;;3.90;99.90;;;;;;5038469;28;20424;-87
2021/01/24 08:55:47;;;;;;;21.30;12.87;;;4.00;99.90;;;;;;5038542;28;20193;-86
2021/01/24 08:58:28;;;;;;;18.30;13.97;;;4.00;99.90;;;;;;5056065;28;20936;-86
2021/01/24 09:01:07;;;;;;;20.37;14.23;;;4.00;99.90;;;;;;5037923;28;20436;-86
2021/01/24 09:03:33;;;;;;;24.77;13.90;;;4.00;99.90;;;;;;5056105;28;20414;-86
2021/01/24 09:06:17;;;;;;;21.43;14.27;;;4.00;99.90;;;;;;5057744;28;20491;-88
2021/01/24 09:08:59;;;;;;;21.70;14.53;;;4.00;99.90;;;;;;5038194;28;20715;-87
2021/01/24 09:11:24;;;;;;;21.13;15.20;;;4.00;99.90;;;;;;5041250;28;20409;-86
2021/01/24 09:13:50;;;;;;;26.60;16.17;;;4.00;99.90;;;;;;5037767;28;20490;-87
2021/01/24 09:16:19;;;;;;;25.33;15.47;;;4.20;99.90;;;;;;5055749;28;20231;-86
2021/01/24 09:18:45;;;;;;;24.10;14.33;;;4.10;99.90;;;;;;5037897;28;20180;-89
2021/01/24 09:21:10;;;;;;;26.37;16.40;;;4.00;99.90;;;;;;5037784;28;20416;-86
2021/01/24 09:23:36;;;;;;;22.30;13.93;;;4.10;99.90;;;;;;5037649;28;20166;-86
2021/01/24 09:26:02;;;;;;;21.40;14.17;;;4.30;99.90;;;;;;5055257;28;20203;-85
2021/01/24 09:28:27;;;;;;;20.43;14.50;;;4.10;99.90;;;;;;5037419;28;20220;-86
2021/01/24 09:30:53;;;;;;;22.33;14.30;;;4.20;99.90;;;;;;5036972;28;20655;-86
2021/01/24 09:33:19;;;;;;;21.73;13.13;;;4.30;99.90;;;;;;5037829;28;20176;-87
2021/01/24 09:35:46;;;;;;;18.80;14.40;;;4.20;99.90;;;;;;5055561;28;20442;-86
2021/01/24 09:38:12;;;;;;;21.63;13.93;;;4.40;99.90;;;;;;5037256;28;20507;-86
2021/01/24 09:40:38;;;;;;;20.23;14.10;;;4.40;99.90;;;;;;5037185;28;20556;-87
2021/01/24 09:43:03;;;;;;;24.57;14.97;;;4.40;99.90;;;;;;5037682;28;20175;-88
2021/01/24 09:45:29;;;;;;;20.97;15.10;;;4.40;99.90;;;;;;5054873;28;20169;-87
2021/01/24 09:47:56;;;;;;;20.40;14.83;;;4.50;99.90;;;;;;5036712;28;20732;-87
2021/01/24 09:50:23;;;;;;;18.50;12.57;;;4.50;99.90;;;;;;5037366;28;20227;-87
2021/01/24 09:52:49;;;;;;;18.37;13.40;;;4.50;99.90;;;;;;5055620;28;20410;-87
2021/01/24 09:55:15;;;;;;;17.67;12.33;;;4.70;99.90;;;;;;5054923;28;20500;-88
2021/01/24 09:57:40;;;;;;;18.27;13.73;;;4.80;99.90;;;;;;5036838;28;20184;-88
2021/01/24 10:00:07;;;;;;;17.10;12.00;;;4.80;99.90;;;;;;5037041;28;20261;-88
2021/01/24 10:02:33;;;;;;;17.60;12.77;;;4.90;99.90;;;;;;5037502;28;20220;-87
2021/01/24 10:04:59;;;;;;;17.83;13.07;;;4.90;99.90;;;;;;5040348;28;20948;-87
2021/01/24 10:07:24;;;;;;;19.13;13.60;;;5.00;99.90;;;;;;5078926;28;20231;-86
2021/01/24 10:09:50;;;;;;;18.50;12.53;;;5.00;99.90;;;;;;5067278;28;20182;-88
2021/01/24 10:12:15;;;;;;;20.27;13.30;;;4.90;99.90;;;;;;5037820;28;20166;-90
2021/01/24 10:14:41;;;;;;;18.17;11.50;;;4.90;99.90;;;;;;5037215;28;20184;-85
2021/01/24 10:17:07;;;;;;;15.17;11.33;;;4.90;99.90;;;;;;5054510;28;20177;-89
2021/01/24 10:19:33;;;;;;;18.67;12.50;;;;;;;;;;5055520;28;20184;-86
2021/01/24 10:21:59;;;;;;;20.17;13.20;;;5.10;99.90;;;;;;5060632;28;20177;-88
2021/01/24 10:24:29;;;;;;;16.23;11.60;;;5.20;99.90;;;;;;5063228;28;20994;-91
2021/01/24 10:26:55;;;;;;;16.63;12.50;;;5.20;99.90;;;;;;5058486;28;20916;-92
2021/01/24 10:29:21;;;;;;;18.73;12.43;;;5.30;99.90;;;;;;5059837;28;20482;-91
2021/01/24 10:31:46;;;;;;;16.70;11.13;;;5.40;99.90;;;;;;5060109;28;20420;-91
2021/01/24 10:34:12;;;;;;;15.90;11.00;;;5.50;99.90;;;;;;5055337;28;20683;-85
2021/01/24 10:36:37;;;;;;;15.30;12.07;;;5.50;99.90;;;;;;5053332;28;20169;-89
2021/01/24 10:39:04;;;;;;;15.03;11.63;;;5.60;99.90;;;;;;5037451;28;20579;-89
2021/01/24 10:41:30;;;;;;;17.63;12.90;;;5.80;99.90;;;;;;5054651;28;20193;-90
2021/01/24 10:43:57;;;;;;;17.57;12.23;;;5.80;99.90;;;;;;5054134;28;20472;-88
2021/01/24 10:46:22;;;;;;;15.73;11.10;;;5.90;99.90;;;;;;5053413;28;20185;-89
2021/01/24 10:48:50;;;;;;;18.53;12.93;;;6.00;99.90;;;;;;5057649;28;20473;-93
2021/01/24 10:51:16;;;;;;;19.43;12.00;;;6.00;99.90;;;;;;5086651;23;20229;-92
2021/01/24 10:53:44;;;;;;;22.07;12.33;;;6.20;99.90;;;;;;5106737;22;20482;-93
2021/01/24 10:56:09;;;;;;;18.50;13.30;;;6.10;99.90;;;;;;5078171;28;20176;-93
2021/01/24 10:58:35;;;;;;;16.30;11.93;;;6.20;99.90;;;;;;5074339;28;20424;-87
2021/01/24 11:01:00;;;;;;;18.53;12.17;;;6.20;99.90;;;;;;5072065;28;20168;-86
2021/01/24 11:03:26;;;;;;;17.00;11.67;;;6.30;99.90;;;;;;5073764;28;20206;-86
2021/01/24 11:05:51;;;;;;;18.00;12.60;;;6.30;99.90;;;;;;5070822;28;20177;-87
2021/01/24 11:08:17;;;;;;;18.00;12.47;;;6.50;99.90;;;;;;5074419;28;20276;-89
2021/01/24 11:10:43;;;;;;;16.97;13.57;;;6.50;99.90;;;;;;5053920;28;20177;-87
2021/01/24 11:13:08;;;;;;;18.77;14.43;;;6.50;99.90;;;;;;5069104;28;20224;-86
2021/01/24 11:15:34;;;;;;;16.80;11.57;;;6.50;99.90;;;;;;5053052;28;20170;-88
2021/01/24 11:17:59;;;;;;;18.30;12.10;;;6.40;99.90;;;;;;5055372;28;20185;-89
2021/01/24 11:20:25;;;;;;;15.93;12.10;;;6.30;99.90;;;;;;5054894;28;20176;-86
2021/01/24 11:22:51;;;;;;;14.97;11.17;;;6.20;99.90;;;;;;5071505;28;20183;-87
2021/01/24 11:25:16;;;;;;;17.03;12.30;;;6.10;99.90;;;;;;5071641;28;20225;-88
2021/01/24 11:27:42;;;;;;;19.10;11.90;;;5.90;99.90;;;;;;5073483;28;20240;-87
2021/01/24 11:30:10;;;;;;;19.80;14.20;;;5.70;99.90;;;;;;5071948;28;20173;-88
2021/01/24 11:32:37;;;;;;;18.87;13.70;;;5.60;99.90;;;;;;5072546;28;20728;-87
2021/01/24 11:35:04;;;;;;;15.10;11.70;;;5.50;99.90;;;;;;5065499;28;20419;-88
2021/01/24 11:37:29;;;;;;;17.67;12.10;;;5.40;99.90;;;;;;5051774;28;20921;-86
2021/01/24 11:39:55;;;;;;;18.03;12.90;;;5.30;99.90;;;;;;5040837;28;20505;-88
2021/01/24 11:42:21;;;;;;;18.93;12.70;;;5.20;99.90;;;;;;5073305;28;20174;-87
2021/01/24 11:44:46;;;;;;;17.23;11.50;;;5.10;99.90;;;;;;5075137;28;20704;-88
2021/01/24 11:47:12;;;;;;;21.37;13.80;;;5.10;99.90;;;;;;5075597;28;20176;-87
2021/01/24 11:49:37;;;;;;;21.13;12.13;;;5.00;99.90;;;;;;5075720;28;20226;-87
2021/01/24 11:52:04;;;;;;;14.70;10.33;;;5.00;99.90;;;;;;5076600;28;20177;-88
2021/01/24 11:54:29;;;;;;;18.30;10.10;;;4.90;99.90;;;;;;5075385;28;20224;-88
2021/01/24 11:56:55;;;;;;;17.77;11.70;;;4.80;99.90;;;;;;5075846;28;20422;-87
2021/01/24 11:59:20;;;;;;;16.60;10.77;;;4.80;99.90;;;;;;5075572;28;20169;-88
2021/01/24 12:01:46;;;;;;;14.27;10.37;;;4.80;99.90;;;;;;5075575;28;20176;-88
2021/01/24 12:04:11;;;;;;;16.03;12.17;;;4.80;99.90;;;;;;5074567;28;20173;-87
2021/01/24 12:06:37;;;;;;;17.60;12.43;;;4.90;99.90;;;;;;5054783;28;20193;-87
2021/01/24 12:09:03;;;;;;;18.13;12.10;;;4.80;99.90;;;;;;5072661;28;20255;-87
2021/01/24 12:11:28;;;;;;;19.27;13.10;;;4.70;99.90;;;;;;5054648;28;20177;-87
2021/01/24 12:13:54;;;;;;;19.50;12.77;;;4.60;99.90;;;;;;5067789;28;20177;-86
2021/01/24 12:16:21;;;;;;;15.03;12.70;;;4.70;99.90;;;;;;5060732;28;20546;-87
2021/01/24 12:18:47;;;;;;;19.20;12.90;;;4.70;99.90;;;;;;5060161;28;20185;-87
2021/01/24 12:21:13;;;;;;;17.43;12.50;;;4.70;99.90;;;;;;5076881;28;20411;-87
2021/01/24 12:23:40;;;;;;;20.77;14.03;;;4.60;99.90;;;;;;5075754;28;20919;-87
2021/01/24 12:26:05;;;;;;;16.97;13.60;;;4.70;99.90;;;;;;5059212;28;20175;-87
2021/01/24 12:28:31;;;;;;;17.87;12.10;;;4.80;99.90;;;;;;5058616;28;20466;-86
2021/01/24 12:30:57;;;;;;;21.37;12.50;;;4.90;99.90;;;;;;5059294;28;20268;-87
2021/01/24 12:33:23;;;;;;;18.07;12.30;;;4.80;99.90;;;;;;5076647;28;20191;-85
2021/01/24 12:35:48;;;;;;;16.73;10.90;;;4.80;99.90;;;;;;5054908;28;20422;-88
2021/01/24 12:38:15;;;;;;;15.30;10.70;;;4.80;99.90;;;;;;5072103;28;20479;-86
2021/01/24 12:40:41;;;;;;;17.80;13.33;;;4.80;99.90;;;;;;5067218;28;20169;-87